Time;durP1;ratioP1;P1;durP2;ratioP2;P2;SDS_P1;SDS_P2;PMS_P1;PMS_P2;Temp;Humidity;BMP_temperature;BMP_pressure;BME280_temperature;BME280_humidity;BME280_pressure;Samples;Min_cycle;Max_cycle;Signal;HPM_P1;HPM_P2
2021/07/16 00:01:27;;;;;;;;;10.25;8.50;;;;;;;;5052114;27;45809;-77
2021/07/16 00:03:52;;;;;;;;;12.33;7.33;;;;;;;;5052319;28;46007;-77
2021/07/16 00:06:18;;;;;;;;;11.33;8.33;;;;;;;;5061335;28;45477;-78
2021/07/16 00:08:43;;;;;;;;;14.25;9.50;;;;;;;;5062235;28;45391;-76
2021/07/16 00:11:08;;;;;;;;;11.00;8.50;;;;;;;;5063909;28;45279;-78
2021/07/16 00:13:34;;;;;;;;;10.33;9.67;;;;;;;;5058762;28;45463;-78
2021/07/16 00:15:59;;;;;;;;;14.33;10.00;;;;;;;;5057324;28;46021;-77
2021/07/16 00:18:24;;;;;;;;;11.00;9.00;;;;;;;;5054921;28;45705;-76
2021/07/16 00:20:49;;;;;;;;;14.00;9.00;;;;;;;;5059703;28;45340;-77
2021/07/16 00:23:15;;;;;;;;;12.00;8.50;;;;;;;;5062892;28;45453;-77
2021/07/16 00:25:40;;;;;;;;;9.00;9.00;;;;;;;;5052980;28;45707;-77
2021/07/16 00:28:06;;;;;;;;;14.75;12.25;;;;;;;;5053261;28;45470;-77
2021/07/16 00:30:32;;;;;;;;;13.00;11.00;;;;;;;;5054869;27;46691;-77
2021/07/16 00:32:57;;;;;;;;;9.50;9.25;;;;;;;;5061970;28;45466;-78
2021/07/16 00:35:22;;;;;;;;;13.67;11.00;;;;;;;;5061701;28;45351;-76
2021/07/16 00:37:48;;;;;;;;;9.50;9.50;;;;;;;;5059802;28;45625;-77
2021/07/16 00:40:13;;;;;;;;;11.33;9.00;;;;;;;;5056107;28;45552;-78
2021/07/16 00:42:39;;;;;;;;;12.75;12.75;;;;;;;;5061224;27;45434;-77
2021/07/16 00:45:07;;;;;;;;;13.00;9.50;;;;;;;;5046605;28;45394;-77
2021/07/16 00:47:33;;;;;;;;;10.00;9.50;;;;;;;;5051119;28;45418;-77
2021/07/16 00:49:58;;;;;;;;;16.67;13.00;;;;;;;;5065875;28;45725;-77
2021/07/16 00:52:23;;;;;;;;;12.00;10.00;;;;;;;;5060438;28;45552;-76
2021/07/16 00:54:49;;;;;;;;;11.00;9.00;;;;;;;;5058930;28;45398;-78
2021/07/16 00:57:14;;;;;;;;;10.00;9.75;;;;;;;;5064835;27;45452;-77
2021/07/16 00:59:39;;;;;;;;;13.33;10.67;;;;;;;;5057491;28;45383;-77
2021/07/16 01:02:05;;;;;;;;;10.00;9.33;;;;;;;;5056154;28;45392;-80
2021/07/16 01:04:30;;;;;;;;;13.75;9.75;;;;;;;;5060071;28;46187;-78
2021/07/16 01:06:55;;;;;;;;;12.33;10.00;;;;;;;;5059247;28;45674;-77
2021/07/16 01:09:20;;;;;;;;;12.50;9.50;;;;;;;;5072001;27;48974;-77
2021/07/16 01:11:46;;;;;;;;;12.00;10.00;;;;;;;;5064432;28;45527;-77
2021/07/16 01:14:12;;;;;;;;;11.00;10.75;;;;;;;;5054932;28;46061;-77
2021/07/16 01:16:38;;;;;;;;;11.00;10.25;;;;;;;;5062798;28;45430;-78
2021/07/16 01:19:03;;;;;;;;;10.75;8.50;;;;;;;;5056107;27;45610;-76
2021/07/16 01:21:31;;;;;;;;;10.50;10.00;;;;;;;;5063692;27;45469;-77
2021/07/16 01:23:56;;;;;;;;;8.75;8.75;;;;;;;;5054728;28;46201;-78
2021/07/16 01:26:22;;;;;;;;;9.00;9.00;;;;;;;;5064436;28;45566;-77
2021/07/16 01:28:47;;;;;;;;;11.00;10.00;;;;;;;;5062687;28;45367;-77
2021/07/16 01:31:13;;;;;;;;;9.00;9.00;;;;;;;;5057387;28;45318;-77
2021/07/16 01:33:38;;;;;;;;;13.00;8.00;;;;;;;;5060641;28;45220;-78
2021/07/16 01:36:04;;;;;;;;;13.25;10.00;;;;;;;;5035964;28;45444;-77
2021/07/16 01:38:29;;;;;;;;;11.00;9.00;;;;;;;;5053473;28;46033;-78
2021/07/16 01:40:55;;;;;;;;;9.75;7.25;;;;;;;;5064373;28;45470;-77
2021/07/16 01:43:20;;;;;;;;;11.50;9.25;;;;;;;;5053946;27;45572;-79
2021/07/16 01:45:45;;;;;;;;;9.75;8.75;;;;;;;;5051549;28;45527;-79
2021/07/16 01:48:14;;;;;;;;;11.33;9.33;;;;;;;;5052826;28;45497;-77
2021/07/16 01:50:42;;;;;;;;;8.75;8.25;;;;;;;;5063904;28;48597;-77
2021/07/16 01:53:07;;;;;;;;;12.00;9.25;;;;;;;;5053443;28;46528;-77
2021/07/16 01:55:34;;;;;;;;;10.75;10.75;;;;;;;;5053734;28;45726;-77
2021/07/16 01:58:00;;;;;;;;;10.25;9.50;;;;;;;;5052391;28;45481;-77
2021/07/16 02:00:28;;;;;;;;;11.75;10.75;;;;;;;;5056395;28;45399;-78
2021/07/16 02:02:54;;;;;;;;;13.75;8.25;;;;;;;;5051984;28;45743;-76
2021/07/16 02:05:20;;;;;;;;;7.00;7.00;;;;;;;;5064231;28;46502;-77
2021/07/16 02:07:47;;;;;;;;;10.00;9.00;;;;;;;;5053578;28;45785;-77
2021/07/16 02:10:13;;;;;;;;;11.75;9.00;;;;;;;;5052827;28;45543;-76
2021/07/16 02:12:38;;;;;;;;;10.25;8.25;;;;;;;;5052114;28;45367;-77
2021/07/16 02:15:10;;;;;;;;;9.67;8.00;;;;;;;;5052857;28;46542;-77
2021/07/16 02:17:36;;;;;;;;;7.75;7.50;;;;;;;;5062190;28;45291;-78
2021/07/16 02:20:01;;;;;;;;;11.67;8.00;;;;;;;;5065890;28;45576;-79
2021/07/16 02:22:26;;;;;;;;;13.00;9.75;;;;;;;;5058563;27;46403;-81
2021/07/16 02:24:51;;;;;;;;;11.00;8.00;;;;;;;;5057969;28;45402;-78
2021/07/16 02:27:18;;;;;;;;;11.67;10.00;;;;;;;;5058112;28;45601;-78
2021/07/16 02:29:43;;;;;;;;;11.00;11.00;;;;;;;;5052934;28;45291;-77
2021/07/16 02:32:08;;;;;;;;;9.75;9.25;;;;;;;;5057535;28;46253;-79
2021/07/16 02:34:33;;;;;;;;;9.33;9.00;;;;;;;;5060274;28;45456;-78
2021/07/16 02:36:59;;;;;;;;;10.00;8.33;;;;;;;;5056381;27;45476;-78
2021/07/16 02:39:24;;;;;;;;;9.33;9.33;;;;;;;;5052032;28;45491;-79
2021/07/16 02:41:49;;;;;;;;;9.33;7.00;;;;;;;;5054478;28;46381;-77
2021/07/16 02:44:14;;;;;;;;;10.25;7.75;;;;;;;;5063939;28;45411;-77
2021/07/16 02:46:39;;;;;;;;;10.00;9.00;;;;;;;;5061278;28;45323;-77
2021/07/16 02:49:05;;;;;;;;;8.00;8.00;;;;;;;;5055403;28;45450;-77
2021/07/16 02:51:30;;;;;;;;;9.33;6.33;;;;;;;;5060655;28;46337;-78
2021/07/16 02:53:55;;;;;;;;;7.00;7.00;;;;;;;;5063116;28;45354;-77
2021/07/16 02:56:23;;;;;;;;;8.33;8.33;;;;;;;;5058787;28;45429;-78
2021/07/16 02:58:48;;;;;;;;;9.00;8.25;;;;;;;;5054681;28;45391;-80
2021/07/16 03:01:13;;;;;;;;;10.67;8.67;;;;;;;;5051866;28;45398;-78
2021/07/16 03:03:38;;;;;;;;;9.00;7.00;;;;;;;;5050933;28;45369;-78
2021/07/16 03:06:04;;;;;;;;;8.25;7.75;;;;;;;;5063396;28;45943;-77
2021/07/16 03:08:29;;;;;;;;;14.00;9.33;;;;;;;;5053129;28;45864;-77
2021/07/16 03:10:54;;;;;;;;;7.50;7.50;;;;;;;;5064072;28;47104;-80
2021/07/16 03:13:20;;;;;;;;;11.00;9.67;;;;;;;;5053168;28;45344;-77
2021/07/16 03:15:45;;;;;;;;;8.25;7.25;;;;;;;;5051830;28;45730;-77
2021/07/16 03:18:11;;;;;;;;;10.50;7.00;;;;;;;;5061517;28;45740;-78
2021/07/16 03:20:38;;;;;;;;;9.50;8.00;;;;;;;;5063292;28;46194;-78
2021/07/16 03:23:04;;;;;;;;;12.00;7.25;;;;;;;;5065367;28;45249;-77
2021/07/16 03:25:30;;;;;;;;;8.75;5.75;;;;;;;;5056189;28;45534;-78
2021/07/16 03:27:55;;;;;;;;;7.25;7.00;;;;;;;;5057512;27;45422;-78
2021/07/16 03:30:23;;;;;;;;;8.50;5.25;;;;;;;;5059290;27;46364;-77
2021/07/16 03:32:49;;;;;;;;;7.75;6.00;;;;;;;;5048270;28;45891;-77
2021/07/16 03:35:14;;;;;;;;;7.75;5.50;;;;;;;;5063607;28;45435;-78
2021/07/16 03:37:41;;;;;;;;;9.50;4.25;;;;;;;;5055441;28;45327;-77
2021/07/16 03:40:07;;;;;;;;;8.00;7.00;;;;;;;;5053714;28;46697;-79
2021/07/16 03:42:32;;;;;;;;;11.00;7.00;;;;;;;;5058409;28;45589;-77
2021/07/16 03:44:58;;;;;;;;;10.00;6.00;;;;;;;;5059295;28;45532;-77
2021/07/16 03:47:24;;;;;;;;;9.00;6.00;;;;;;;;5056890;28;45752;-77
2021/07/16 03:49:49;;;;;;;;;5.33;5.00;;;;;;;;5062423;28;45406;-77
2021/07/16 03:52:15;;;;;;;;;6.00;6.00;;;;;;;;5054820;27;45545;-77
2021/07/16 03:54:40;;;;;;;;;5.00;5.00;;;;;;;;5051977;28;45375;-79
2021/07/16 03:57:06;;;;;;;;;10.67;6.00;;;;;;;;5062735;27;45405;-77
2021/07/16 03:59:32;;;;;;;;;5.00;5.00;;;;;;;;5051164;28;46156;-78
2021/07/16 04:01:57;;;;;;;;;5.75;4.00;;;;;;;;5053213;28;45416;-77
2021/07/16 04:04:22;;;;;;;;;5.00;5.00;;;;;;;;5055958;28;45493;-77
2021/07/16 04:06:54;;;;;;;;;5.67;5.67;;;;;;;;5056690;27;45533;-80
2021/07/16 04:09:26;;;;;;;;;6.00;6.00;;;;;;;;5061285;27;46189;-77
2021/07/16 04:12:10;;;;;;;;;6.25;6.25;;;;;;;;5065248;28;45513;-77
2021/07/16 04:14:40;;;;;;;;;5.00;4.50;;;;;;;;5057540;28;45311;-77
2021/07/16 04:17:07;;;;;;;;;4.50;4.25;;;;;;;;5062167;28;45528;-77
2021/07/16 04:19:32;;;;;;;;;6.75;5.00;;;;;;;;5077533;27;46941;-78
2021/07/16 04:21:58;;;;;;;;;12.00;5.00;;;;;;;;5061984;28;45556;-77
2021/07/16 04:24:24;;;;;;;;;5.25;5.25;;;;;;;;5063524;27;45307;-77
2021/07/16 04:26:49;;;;;;;;;7.75;5.00;;;;;;;;5056860;28;45585;-77
2021/07/16 04:29:14;;;;;;;;;6.33;6.33;;;;;;;;5060347;28;45683;-77
2021/07/16 04:31:40;;;;;;;;;7.33;5.00;;;;;;;;5055809;28;45487;-77
2021/07/16 04:34:05;;;;;;;;;9.50;6.25;;;;;;;;5056809;28;45303;-77
2021/07/16 04:36:30;;;;;;;;;7.75;6.00;;;;;;;;5054458;28;45505;-79
2021/07/16 04:38:55;;;;;;;;;7.75;6.00;;;;;;;;5057692;28;46454;-77
2021/07/16 04:41:21;;;;;;;;;7.67;7.00;;;;;;;;5054300;28;45433;-78
2021/07/16 04:43:46;;;;;;;;;7.00;6.00;;;;;;;;5065089;28;45559;-77
2021/07/16 04:46:11;;;;;;;;;5.75;5.75;;;;;;;;5059958;28;45536;-78
2021/07/16 04:48:36;;;;;;;;;7.67;6.33;;;;;;;;5055614;28;45938;-80
2021/07/16 04:51:02;;;;;;;;;6.00;6.00;;;;;;;;5055480;28;45471;-78
2021/07/16 04:53:27;;;;;;;;;9.33;8.33;;;;;;;;5059827;28;45436;-78
2021/07/16 04:55:52;;;;;;;;;9.00;7.67;;;;;;;;5066030;28;45537;-76
2021/07/16 04:58:17;;;;;;;;;11.00;5.00;;;;;;;;5055537;28;47291;-77
2021/07/16 05:00:43;;;;;;;;;5.67;5.67;;;;;;;;5054115;28;45393;-76
2021/07/16 05:03:08;;;;;;;;;5.25;5.25;;;;;;;;5052465;28;45889;-77
2021/07/16 05:05:33;;;;;;;;;8.25;6.00;;;;;;;;5053121;28;45483;-77
2021/07/16 05:07:58;;;;;;;;;7.25;7.25;;;;;;;;5066490;28;45659;-77
2021/07/16 05:10:24;;;;;;;;;7.00;6.33;;;;;;;;5059273;28;45624;-77
2021/07/16 05:12:49;;;;;;;;;6.33;5.67;;;;;;;;5058861;28;45383;-77
2021/07/16 05:15:14;;;;;;;;;8.33;6.67;;;;;;;;5061465;28;45474;-77
2021/07/16 05:17:40;;;;;;;;;8.50;7.75;;;;;;;;5060215;28;46592;-76
2021/07/16 05:20:06;;;;;;;;;6.75;5.00;;;;;;;;5067236;28;45461;-76
2021/07/16 05:22:31;;;;;;;;;5.00;5.00;;;;;;;;5059547;28;45676;-77
2021/07/16 05:24:56;;;;;;;;;7.25;6.50;;;;;;;;5058667;28;45408;-77
2021/07/16 05:27:22;;;;;;;;;10.00;7.00;;;;;;;;5057603;28;46357;-77
2021/07/16 05:29:47;;;;;;;;;6.33;6.33;;;;;;;;5064332;28;45480;-77
2021/07/16 05:32:12;;;;;;;;;15.67;7.67;;;;;;;;5053411;28;45506;-77
2021/07/16 05:34:37;;;;;;;;;8.00;6.67;;;;;;;;5062166;28;45276;-76
2021/07/16 05:37:03;;;;;;;;;7.00;7.00;;;;;;;;5058706;28;45344;-76
2021/07/16 05:39:28;;;;;;;;;6.00;6.00;;;;;;;;5061546;27;45934;-77
2021/07/16 05:41:53;;;;;;;;;9.75;7.00;;;;;;;;5062653;28;45410;-76
2021/07/16 05:44:18;;;;;;;;;6.00;5.67;;;;;;;;5062815;28;45351;-77
2021/07/16 05:46:44;;;;;;;;;7.00;5.00;;;;;;;;5062621;28;46533;-76
2021/07/16 05:49:09;;;;;;;;;9.00;8.00;;;;;;;;5056188;28;45346;-77
2021/07/16 05:51:34;;;;;;;;;5.33;5.00;;;;;;;;5052228;28;45388;-77
2021/07/16 05:53:59;;;;;;;;;5.25;5.00;;;;;;;;5064045;28;45485;-77
2021/07/16 05:56:24;;;;;;;;;10.00;5.67;;;;;;;;5064664;28;45323;-77
2021/07/16 05:58:50;;;;;;;;;7.67;6.00;;;;;;;;5063483;28;45399;-76
2021/07/16 06:01:15;;;;;;;;;7.33;5.00;;;;;;;;5055200;28;46085;-77
2021/07/16 06:03:41;;;;;;;;;8.00;6.67;;;;;;;;5052955;28;45542;-77
2021/07/16 06:06:07;;;;;;;;;5.00;5.00;;;;;;;;5055862;28;46616;-76
2021/07/16 06:08:32;;;;;;;;;5.25;5.00;;;;;;;;5063888;28;45327;-76
2021/07/16 06:10:57;;;;;;;;;8.00;5.00;;;;;;;;5065614;28;45334;-78
2021/07/16 06:13:24;;;;;;;;;5.00;4.00;;;;;;;;5054045;28;45438;-77
2021/07/16 06:15:49;;;;;;;;;7.00;7.00;;;;;;;;5053693;28;47050;-79
2021/07/16 06:18:14;;;;;;;;;10.33;6.00;;;;;;;;5051372;28;45548;-76
2021/07/16 06:20:44;;;;;;;;;6.00;4.67;;;;;;;;5053362;28;45498;-77
2021/07/16 06:23:09;;;;;;;;;5.75;5.75;;;;;;;;5052337;28;45823;-77
2021/07/16 06:25:35;;;;;;;;;7.00;5.33;;;;;;;;5060088;28;45367;-77
2021/07/16 06:28:01;;;;;;;;;8.25;4.00;;;;;;;;5056804;27;45765;-77
2021/07/16 06:30:27;;;;;;;;;7.00;4.75;;;;;;;;5057682;27;45753;-77
2021/07/16 06:32:52;;;;;;;;;3.67;3.67;;;;;;;;5058174;28;45368;-78
2021/07/16 06:35:17;;;;;;;;;5.67;4.00;;;;;;;;5062731;28;47021;-78
2021/07/16 06:37:42;;;;;;;;;4.00;4.00;;;;;;;;5055048;28;45481;-77
2021/07/16 06:40:08;;;;;;;;;7.00;3.75;;;;;;;;5053629;28;45413;-77
2021/07/16 06:42:33;;;;;;;;;6.00;5.25;;;;;;;;5059632;28;45414;-77
2021/07/16 06:44:58;;;;;;;;;5.33;4.00;;;;;;;;5050149;28;46341;-77
2021/07/16 06:47:23;;;;;;;;;6.25;3.25;;;;;;;;5049659;28;45479;-76
2021/07/16 06:49:49;;;;;;;;;6.67;3.00;;;;;;;;5061356;28;45436;-77
2021/07/16 06:52:14;;;;;;;;;5.00;4.00;;;;;;;;5050636;28;45434;-78
2021/07/16 06:54:39;;;;;;;;;4.00;4.00;;;;;;;;5051304;28;46285;-77
2021/07/16 06:57:05;;;;;;;;;5.00;4.00;;;;;;;;5061878;28;45479;-76
2021/07/16 06:59:30;;;;;;;;;4.75;3.25;;;;;;;;5053102;28;45541;-78
2021/07/16 07:01:56;;;;;;;;;3.75;3.75;;;;;;;;5054647;28;45391;-77
2021/07/16 07:04:21;;;;;;;;;3.50;3.50;;;;;;;;5054107;28;45505;-78
2021/07/16 07:06:46;;;;;;;;;6.00;3.33;;;;;;;;5059497;28;45450;-77
2021/07/16 07:09:11;;;;;;;;;2.75;2.50;;;;;;;;5060979;28;45308;-83
2021/07/16 07:11:37;;;;;;;;;4.75;3.00;;;;;;;;5062658;28;45481;-76
2021/07/16 07:14:02;;;;;;;;;3.00;3.00;;;;;;;;5062153;28;45458;-77
2021/07/16 07:16:27;;;;;;;;;4.75;3.50;;;;;;;;5044731;27;45463;-77
2021/07/16 07:18:52;;;;;;;;;6.00;5.00;;;;;;;;5042737;28;45684;-77
2021/07/16 07:21:18;;;;;;;;;5.00;3.00;;;;;;;;5043121;28;45550;-77
2021/07/16 07:23:43;;;;;;;;;6.50;3.25;;;;;;;;5059068;28;46507;-77
2021/07/16 07:26:08;;;;;;;;;3.33;2.33;;;;;;;;5064384;28;45439;-77
2021/07/16 07:28:34;;;;;;;;;4.00;2.50;;;;;;;;5056657;28;45357;-77
2021/07/16 07:30:59;;;;;;;;;3.00;3.00;;;;;;;;5054917;28;45346;-77
2021/07/16 07:33:24;;;;;;;;;4.25;2.00;;;;;;;;5050185;28;45498;-77
2021/07/16 07:35:50;;;;;;;;;3.00;3.00;;;;;;;;5061416;28;45609;-77
2021/07/16 07:38:15;;;;;;;;;4.00;2.00;;;;;;;;5057724;28;45657;-78
2021/07/16 07:40:41;;;;;;;;;2.00;2.00;;;;;;;;5054919;28;45295;-77
2021/07/16 07:43:07;;;;;;;;;1.75;1.25;;;;;;;;5051516;28;45439;-77
2021/07/16 07:45:32;;;;;;;;;1.50;1.50;;;;;;;;5057769;27;45723;-77
2021/07/16 07:47:58;;;;;;;;;2.25;2.25;;;;;;;;5049677;28;45523;-77
2021/07/16 07:50:24;;;;;;;;;2.75;1.50;;;;;;;;5051246;28;45331;-77
2021/07/16 07:52:49;;;;;;;;;2.25;2.25;;;;;;;;5060236;28;45332;-76
2021/07/16 07:55:16;;;;;;;;;3.25;1.00;;;;;;;;5055828;27;45416;-77
2021/07/16 07:57:41;;;;;;;;;3.00;1.25;;;;;;;;5054704;28;45450;-76
2021/07/16 08:00:08;;;;;;;;;1.75;1.00;;;;;;;;5061060;28;45382;-76
2021/07/16 08:02:34;;;;;;;;;3.00;1.00;;;;;;;;5051019;28;46090;-77
2021/07/16 08:04:59;;;;;;;;;3.00;1.67;;;;;;;;5063520;28;45474;-76
2021/07/16 08:07:24;;;;;;;;;3.00;2.00;;;;;;;;5053064;28;45434;-76
2021/07/16 08:09:49;;;;;;;;;2.00;2.00;;;;;;;;5050158;28;45631;-76
2021/07/16 08:12:15;;;;;;;;;1.00;1.00;;;;;;;;5058593;28;46859;-77
2021/07/16 08:14:40;;;;;;;;;1.00;1.00;;;;;;;;5062749;28;45426;-77
2021/07/16 08:17:05;;;;;;;;;4.00;2.00;;;;;;;;5064311;28;45453;-76
2021/07/16 08:19:31;;;;;;;;;1.00;1.00;;;;;;;;5056335;28;45401;-76
2021/07/16 08:21:56;;;;;;;;;1.75;1.75;;;;;;;;5056307;27;46377;-76
2021/07/16 08:24:22;;;;;;;;;1.00;1.00;;;;;;;;5059904;28;45533;-76
2021/07/16 08:26:48;;;;;;;;;4.00;2.00;;;;;;;;5052391;28;45537;-76
2021/07/16 08:29:13;;;;;;;;;1.00;1.00;;;;;;;;5052088;28;45550;-78
2021/07/16 08:31:39;;;;;;;;;1.00;1.00;;;;;;;;5043027;28;45541;-78
2021/07/16 08:34:06;;;;;;;;;2.75;1.00;;;;;;;;5047893;28;45532;-77
2021/07/16 08:36:31;;;;;;;;;2.00;1.00;;;;;;;;5051116;28;45889;-79
2021/07/16 08:38:56;;;;;;;;;1.00;1.00;;;;;;;;5034499;28;45976;-78
2021/07/16 08:41:21;;;;;;;;;0.00;0.00;;;;;;;;5042388;28;46374;-79
2021/07/16 08:43:48;;;;;;;;;2.00;1.00;;;;;;;;5046012;28;45560;-79
2021/07/16 08:46:13;;;;;;;;;1.00;1.00;;;;;;;;5046594;28;45521;-79
2021/07/16 08:48:40;;;;;;;;;1.00;1.00;;;;;;;;5046739;28;45544;-78
2021/07/16 08:51:05;;;;;;;;;0.00;0.00;;;;;;;;5049267;28;47528;-78
2021/07/16 08:53:32;;;;;;;;;0.67;0.67;;;;;;;;5049173;28;45394;-77
2021/07/16 08:55:58;;;;;;;;;1.25;1.00;;;;;;;;5051274;28;45419;-79
2021/07/16 08:58:23;;;;;;;;;1.00;1.00;;;;;;;;5054722;28;45547;-76
2021/07/16 09:00:49;;;;;;;;;3.00;1.00;;;;;;;;5056500;27;45523;-78
2021/07/16 09:03:15;;;;;;;;;0.75;0.75;;;;;;;;5050153;28;45433;-78
2021/07/16 09:05:42;;;;;;;;;1.00;1.00;;;;;;;;5053115;28;45507;-78
2021/07/16 09:08:13;;;;;;;;;1.00;1.00;;;;;;;;5049000;28;46834;-78
2021/07/16 09:10:42;;;;;;;;;2.50;1.00;;;;;;;;5047911;28;46013;-77
2021/07/16 09:13:09;;;;;;;;;1.50;1.50;;;;;;;;5049318;28;45817;-80
2021/07/16 09:15:34;;;;;;;;;1.75;1.75;;;;;;;;5050234;28;45886;-81
2021/07/16 09:18:38;;;;;;;;;2.00;2.00;;;;;;;;5040211;28;46008;-79
2021/07/16 09:21:07;;;;;;;;;1.25;1.00;;;;;;;;5002866;28;45760;-78
2021/07/16 09:23:34;;;;;;;;;2.00;2.00;;;;;;;;5003702;28;45877;-79
2021/07/16 09:26:12;;;;;;;;;2.00;2.00;;;;;;;;5004383;28;45594;-80
2021/07/16 09:28:46;;;;;;;;;3.00;2.75;;;;;;;;5004676;28;45520;-79
2021/07/16 09:31:17;;;;;;;;;2.00;2.00;;;;;;;;4988832;28;48141;-79
2021/07/16 09:33:44;;;;;;;;;3.00;3.00;;;;;;;;5002857;28;46606;-79
2021/07/16 09:36:10;;;;;;;;;3.00;3.00;;;;;;;;5003065;28;45428;-78
2021/07/16 09:38:35;;;;;;;;;2.00;2.00;;;;;;;;5004930;28;45539;-79
2021/07/16 09:41:08;;;;;;;;;5.00;3.00;;;;;;;;4991014;28;48712;-79
2021/07/16 09:43:33;;;;;;;;;3.75;2.00;;;;;;;;5007237;28;45986;-78
2021/07/16 09:46:03;;;;;;;;;2.50;2.50;;;;;;;;4992799;28;45967;-79
2021/07/16 09:48:31;;;;;;;;;2.50;2.00;;;;;;;;5009690;28;45438;-80
2021/07/16 09:51:15;;;;;;;;;3.00;3.00;;;;;;;;5011368;28;46422;-79
2021/07/16 09:53:41;;;;;;;;;3.50;2.00;;;;;;;;5047642;28;45632;-79
2021/07/16 09:56:10;;;;;;;;;4.50;2.00;;;;;;;;5050462;28;45661;-79
2021/07/16 09:58:36;;;;;;;;;3.00;3.00;;;;;;;;5047904;28;46519;-79
2021/07/16 10:01:02;;;;;;;;;3.50;3.00;;;;;;;;5047152;28;48492;-79
2021/07/16 10:03:27;;;;;;;;;4.00;3.00;;;;;;;;5042901;28;45728;-80
2021/07/16 10:05:54;;;;;;;;;4.00;2.75;;;;;;;;5043733;28;49146;-78
2021/07/16 10:08:19;;;;;;;;;2.75;2.75;;;;;;;;5041883;28;45831;-78
2021/07/16 10:10:46;;;;;;;;;3.00;3.00;;;;;;;;5038045;28;47181;-79
2021/07/16 10:13:12;;;;;;;;;5.00;4.25;;;;;;;;5040582;28;45833;-77
2021/07/16 10:15:37;;;;;;;;;3.00;3.00;;;;;;;;5048221;28;45773;-79
2021/07/16 10:18:05;;;;;;;;;5.00;3.00;;;;;;;;5045180;28;45446;-79
2021/07/16 10:20:34;;;;;;;;;4.75;3.50;;;;;;;;5041517;28;45984;-80
2021/07/16 10:22:59;;;;;;;;;3.50;3.00;;;;;;;;5046322;28;46275;-81
2021/07/16 10:25:26;;;;;;;;;3.50;3.50;;;;;;;;5046826;28;45426;-78
2021/07/16 10:27:51;;;;;;;;;4.25;4.25;;;;;;;;5047594;28;45998;-78
2021/07/16 10:30:17;;;;;;;;;8.67;4.00;;;;;;;;5046977;28;51357;-79
2021/07/16 10:32:43;;;;;;;;;5.00;4.00;;;;;;;;5049643;28;46039;-79
2021/07/16 10:35:18;;;;;;;;;3.75;3.50;;;;;;;;5049394;28;45557;-78
2021/07/16 10:37:43;;;;;;;;;3.50;3.50;;;;;;;;5050208;28;45504;-81
2021/07/16 10:40:29;;;;;;;;;7.75;5.00;;;;;;;;5045839;28;45701;-80
2021/07/16 10:42:54;;;;;;;;;5.25;4.00;;;;;;;;5046359;28;45529;-79
2021/07/16 10:45:29;;;;;;;;;3.33;3.00;;;;;;;;5046277;28;45420;-78
2021/07/16 10:48:08;;;;;;;;;5.75;3.75;;;;;;;;5054369;28;46643;-79
2021/07/16 10:50:36;;;;;;;;;7.50;4.25;;;;;;;;5049870;28;45574;-78
2021/07/16 10:53:02;;;;;;;;;11.00;6.00;;;;;;;;5047316;28;45801;-78
2021/07/16 10:55:30;;;;;;;;;7.75;5.50;;;;;;;;5050537;28;45280;-78
2021/07/16 10:57:56;;;;;;;;;7.75;6.25;;;;;;;;5047674;28;45537;-77
2021/07/16 11:00:36;;;;;;;;;40.50;29.00;;;;;;;;5050359;28;45489;-79
2021/07/16 11:03:13;;;;;;;;;9.75;8.00;;;;;;;;5046111;28;45579;-78
2021/07/16 11:05:39;;;;;;;;;7.75;6.75;;;;;;;;5051738;28;46630;-79
2021/07/16 11:08:24;;;;;;;;;11.00;8.75;;;;;;;;5052518;28;45547;-78
2021/07/16 11:10:51;;;;;;;;;7.25;5.25;;;;;;;;5048900;28;45381;-79
2021/07/16 11:13:48;;;;;;;;;9.25;7.75;;;;;;;;5051002;28;45725;-78
2021/07/16 11:16:37;;;;;;;;;7.00;6.00;;;;;;;;4992874;28;45481;-78
2021/07/16 11:19:03;;;;;;;;;7.50;6.75;;;;;;;;4990375;28;45563;-78
2021/07/16 11:21:38;;;;;;;;;8.00;8.00;;;;;;;;4981975;28;46547;-78
2021/07/16 11:24:03;;;;;;;;;9.00;7.00;;;;;;;;4990685;28;45707;-78
2021/07/16 11:26:29;;;;;;;;;7.00;7.00;;;;;;;;4980872;28;45500;-78
2021/07/16 11:28:55;;;;;;;;;7.75;6.00;;;;;;;;4996135;28;45471;-78
2021/07/16 11:31:20;;;;;;;;;6.75;6.00;;;;;;;;4992488;28;45596;-78
2021/07/16 11:33:55;;;;;;;;;10.00;9.00;;;;;;;;4970813;28;45941;-79
2021/07/16 11:36:22;;;;;;;;;7.00;6.00;;;;;;;;4986582;28;45506;-78
2021/07/16 11:38:56;;;;;;;;;10.00;7.00;;;;;;;;4989325;28;45529;-79
2021/07/16 11:41:29;;;;;;;;;7.75;5.75;;;;;;;;4985472;28;45816;-78
2021/07/16 11:43:54;;;;;;;;;6.00;5.25;;;;;;;;4984430;28;46498;-78
2021/07/16 11:46:26;;;;;;;;;6.00;6.00;;;;;;;;4985209;28;46267;-77
2021/07/16 11:48:51;;;;;;;;;10.00;6.00;;;;;;;;4983809;28;45481;-76
2021/07/16 11:51:25;;;;;;;;;6.00;5.75;;;;;;;;4996347;28;45421;-76
2021/07/16 11:53:50;;;;;;;;;9.50;7.00;;;;;;;;5054164;27;46547;-77
2021/07/16 11:56:16;;;;;;;;;8.33;8.00;;;;;;;;5025302;28;46226;-76
2021/07/16 11:58:48;;;;;;;;;7.00;7.00;;;;;;;;5026148;28;45523;-77
2021/07/16 12:01:13;;;;;;;;;9.75;7.75;;;;;;;;5026443;28;45603;-78
2021/07/16 12:03:38;;;;;;;;;10.67;10.00;;;;;;;;5021315;28;45729;-77
2021/07/16 12:06:05;;;;;;;;;12.00;8.67;;;;;;;;5023752;28;45404;-77
2021/07/16 12:08:31;;;;;;;;;8.50;8.00;;;;;;;;5017658;28;45560;-77
2021/07/16 12:11:04;;;;;;;;;9.00;8.25;;;;;;;;5031959;28;45826;-77
2021/07/16 12:13:29;;;;;;;;;9.50;8.00;;;;;;;;5028555;28;45927;-77
2021/07/16 12:15:59;;;;;;;;;10.00;8.25;;;;;;;;5027758;28;45765;-78
2021/07/16 12:18:24;;;;;;;;;8.75;8.50;;;;;;;;5027005;28;45433;-78
2021/07/16 12:20:54;;;;;;;;;10.00;10.00;;;;;;;;5028906;28;48677;-77
2021/07/16 12:23:20;;;;;;;;;9.75;7.75;;;;;;;;5027010;28;45921;-77
2021/07/16 12:25:45;;;;;;;;;10.00;9.00;;;;;;;;5028146;28;45328;-77
2021/07/16 12:28:19;;;;;;;;;11.75;7.50;;;;;;;;5027612;28;45428;-77
2021/07/16 12:30:44;;;;;;;;;15.00;10.75;;;;;;;;5026705;28;45537;-77
2021/07/16 12:33:10;;;;;;;;;10.25;10.25;;;;;;;;5026967;28;45762;-78
2021/07/16 12:35:36;;;;;;;;;11.00;11.00;;;;;;;;5022251;28;45652;-77
2021/07/16 12:38:09;;;;;;;;;11.50;9.50;;;;;;;;5038340;28;45487;-77
2021/07/16 12:40:35;;;;;;;;;11.00;11.00;;;;;;;;5030537;28;45505;-78
2021/07/16 12:43:02;;;;;;;;;9.25;8.75;;;;;;;;5046980;28;45572;-78
2021/07/16 12:45:40;;;;;;;;;12.00;8.75;;;;;;;;5049031;28;46397;-78
2021/07/16 12:48:11;;;;;;;;;9.25;8.00;;;;;;;;5051287;28;45562;-78
2021/07/16 12:50:37;;;;;;;;;11.75;9.50;;;;;;;;5049867;28;45501;-78
2021/07/16 12:53:02;;;;;;;;;7.25;6.50;;;;;;;;5056300;28;45525;-78
2021/07/16 12:55:32;;;;;;;;;11.50;7.25;;;;;;;;5050344;28;45466;-78
2021/07/16 12:58:02;;;;;;;;;11.75;8.25;;;;;;;;5050438;28;45472;-78
2021/07/16 13:00:28;;;;;;;;;8.50;7.00;;;;;;;;5050143;28;47563;-77
2021/07/16 13:03:11;;;;;;;;;7.50;6.00;;;;;;;;5050169;28;45510;-78
2021/07/16 13:05:36;;;;;;;;;11.25;8.25;;;;;;;;5047340;28;45458;-78
2021/07/16 13:08:14;;;;;;;;;11.33;9.00;;;;;;;;5050599;28;45603;-78
2021/07/16 13:10:56;;;;;;;;;7.50;7.50;;;;;;;;5050998;28;45510;-78
2021/07/16 13:13:23;;;;;;;;;11.75;8.75;;;;;;;;5048236;28;45522;-78
2021/07/16 13:16:07;;;;;;;;;8.50;7.00;;;;;;;;5049479;28;46505;-78
2021/07/16 13:18:32;;;;;;;;;11.75;9.00;;;;;;;;5049282;28;45576;-79
2021/07/16 13:20:58;;;;;;;;;10.00;8.50;;;;;;;;5049038;28;46745;-78
2021/07/16 13:23:23;;;;;;;;;7.25;7.25;;;;;;;;5042540;28;45685;-78
2021/07/16 13:25:53;;;;;;;;;9.00;8.33;;;;;;;;5066508;27;45449;-79
2021/07/16 13:28:18;;;;;;;;;8.75;8.00;;;;;;;;5063649;27;45516;-81
2021/07/16 13:30:43;;;;;;;;;10.67;7.67;;;;;;;;5049020;28;46143;-79
2021/07/16 13:33:09;;;;;;;;;9.67;7.00;;;;;;;;5051637;28;45852;-80
2021/07/16 13:35:34;;;;;;;;;10.67;8.67;;;;;;;;5050148;28;45708;-78
2021/07/16 13:37:59;;;;;;;;;9.50;9.50;;;;;;;;5049673;28;45809;-82
2021/07/16 13:40:24;;;;;;;;;11.33;10.00;;;;;;;;5052136;28;45473;-76
2021/07/16 13:42:50;;;;;;;;;11.00;11.00;;;;;;;;5050476;28;45514;-78
2021/07/16 13:45:15;;;;;;;;;11.67;9.00;;;;;;;;5052354;28;45702;-78
2021/07/16 13:47:40;;;;;;;;;9.67;9.00;;;;;;;;5058331;28;45388;-77
2021/07/16 13:50:06;;;;;;;;;9.67;7.33;;;;;;;;5060052;28;45428;-79
2021/07/16 13:52:31;;;;;;;;;11.50;7.25;;;;;;;;5051512;27;45537;-77
2021/07/16 13:54:56;;;;;;;;;13.00;9.00;;;;;;;;5050365;28;45460;-77
2021/07/16 13:57:22;;;;;;;;;63.33;48.33;;;;;;;;5057936;28;45574;-78
2021/07/16 13:59:47;;;;;;;;;57.50;43.00;;;;;;;;5060281;28;46051;-78
2021/07/16 14:02:12;;;;;;;;;63.75;48.25;;;;;;;;5053271;28;45621;-78
2021/07/16 14:04:38;;;;;;;;;58.33;44.33;;;;;;;;5054874;28;45399;-78
2021/07/16 14:07:03;;;;;;;;;47.67;37.00;;;;;;;;5052345;28;45408;-77
2021/07/16 14:09:28;;;;;;;;;28.00;26.00;;;;;;;;5046672;28;46981;-77
2021/07/16 14:11:57;;;;;;;;;34.33;27.00;;;;;;;;5061256;28;45348;-78
2021/07/16 14:14:22;;;;;;;;;15.75;14.25;;;;;;;;5055756;28;45411;-77
2021/07/16 14:16:47;;;;;;;;;23.25;20.50;;;;;;;;5050335;28;45698;-78
2021/07/16 14:19:12;;;;;;;;;19.75;14.75;;;;;;;;5051624;28;58111;-78
2021/07/16 14:21:38;;;;;;;;;12.75;11.00;;;;;;;;5046845;28;45694;-78
2021/07/16 14:24:03;;;;;;;;;15.33;11.33;;;;;;;;5049664;28;45919;-78
2021/07/16 14:26:29;;;;;;;;;12.25;11.25;;;;;;;;5055926;28;45529;-78
2021/07/16 14:28:54;;;;;;;;;9.50;9.50;;;;;;;;5054889;28;46562;-77
2021/07/16 14:31:20;;;;;;;;;15.67;10.67;;;;;;;;5049502;28;45588;-77
2021/07/16 14:33:45;;;;;;;;;9.75;8.50;;;;;;;;5048723;28;45433;-78
2021/07/16 14:36:11;;;;;;;;;10.00;8.00;;;;;;;;5057317;28;45528;-78